Main page


Airports :

Tarvisio, Italy

latitude: 46-30N, longitude: 013-35E, elevation: 777 m

Current weather observation

The report was made 32 minutes ago, at 16:55 UTC
Wind 3 kt from the East
Temperature 5°C
Humidity 56%
Pressure 1001 hPa
Visibility 10 km or more
Few clouds at a height of 2800 ft

METAR: LIVO 241655Z 08003KT 9999 FEW028 05/M03 Q1001 RMK FEW VIS MIN 9999

Time: 18:27 (17:27 UTC)

TAF: missing

Weather observations and forecasts of more than 4000 airports (METAR and TAF reports).

The available stations are represented by yellow and red dots on the map.

Hover mouse over dot to see the name of the station.

Then click to see weather observations and forecasts.

To change the map : click on the green buttons with a black cross to zoom in, on the green button with a dash to zoom out, or on the green arrows for adjacent maps.